Time;durP1;ratioP1;P1;durP2;ratioP2;P2;SDS_P1;SDS_P2;PMS_P1;PMS_P2;Temp;Humidity;BMP_temperature;BMP_pressure;BME280_temperature;BME280_humidity;BME280_pressure;Samples;Min_cycle;Max_cycle;Signal;HPM_P1;HPM_P2
2021/07/09 00:02:13;;;;;;;16.30;11.75;;;;;;;18.36;77.39;100801.72;5095104;28;20052;-63
2021/07/09 00:04:41;;;;;;;21.23;13.52;;;;;;;18.39;77.44;100798.19;5093208;28;20056;-63
2021/07/09 00:07:08;;;;;;;16.83;11.85;;;;;;;18.35;77.50;100791.63;5093378;28;20107;-63
2021/07/09 00:09:37;;;;;;;16.38;12.38;;;;;;;18.40;77.60;100791.38;5093427;28;20045;-63
2021/07/09 00:12:07;;;;;;;15.93;11.95;;;;;;;18.41;77.66;100793.00;5093604;28;20079;-63
2021/07/09 00:14:37;;;;;;;17.35;11.65;;;;;;;18.42;77.76;100795.47;5092865;28;20052;-63
2021/07/09 00:17:04;;;;;;;;;;;;;;;18.38;76.91;100794.53;5093560;28;20060;-63
2021/07/09 00:19:31;;;;;;;17.02;11.73;;;;;;;18.40;77.25;100789.38;5093913;28;19920;-63
2021/07/09 00:21:59;;;;;;;15.63;11.15;;;;;;;18.38;77.36;100788.09;5093724;28;20082;-63
2021/07/09 00:24:27;;;;;;;16.50;11.60;;;;;;;18.35;77.04;100786.81;5090766;28;20051;-63
2021/07/09 00:26:56;;;;;;;14.25;11.95;;;;;;;18.33;77.21;100789.16;5072895;28;20063;-63
2021/07/09 00:29:23;;;;;;;14.23;11.35;;;;;;;18.05;78.07;100784.31;5090359;28;20052;-63
2021/07/09 00:31:51;;;;;;;15.32;11.55;;;;;;;18.19;78.10;100783.13;5093483;28;20052;-63
2021/07/09 00:34:19;;;;;;;17.40;13.05;;;;;;;18.23;77.76;100790.50;5092712;28;20048;-63
2021/07/09 00:36:47;;;;;;;15.30;12.18;;;;;;;18.18;77.78;100782.28;5093238;28;20504;-63
2021/07/09 00:39:16;;;;;;;15.70;12.48;;;;;;;18.21;77.61;100778.75;5093047;28;20052;-63
2021/07/09 00:41:43;;;;;;;15.52;12.00;;;;;;;18.23;77.70;100782.03;5093594;28;20056;-63
2021/07/09 00:44:12;;;;;;;16.73;13.10;;;;;;;18.08;78.15;100782.81;5092999;28;20052;-63
2021/07/09 00:46:41;;;;;;;19.65;13.13;;;;;;;18.18;77.97;100784.28;5093604;28;20489;-63
2021/07/09 00:49:11;;;;;;;21.08;13.30;;;;;;;18.23;77.97;100781.22;5093121;28;20052;-63
2021/07/09 00:51:39;;;;;;;19.35;13.38;;;;;;;18.16;78.17;100793.09;5092929;28;20063;-63
2021/07/09 00:54:06;;;;;;;16.17;13.10;;;;;;;18.22;78.39;100794.47;5092699;28;20483;-63
2021/07/09 00:56:35;;;;;;;17.23;12.27;;;;;;;18.28;78.27;100797.06;5092745;28;20063;-63
2021/07/09 00:59:04;;;;;;;17.15;13.00;;;;;;;18.32;78.25;100792.34;5092940;28;20052;-63
2021/07/09 01:01:33;;;;;;;18.05;12.73;;;;;;;18.34;78.10;100790.78;5093161;28;20067;-64
2021/07/09 01:04:00;;;;;;;17.90;12.27;;;;;;;18.36;78.15;100784.81;5092395;28;20048;-63
2021/07/09 01:06:31;;;;;;;17.80;13.18;;;;;;;18.38;78.38;100796.56;5093154;28;20054;-63
2021/07/09 01:08:58;;;;;;;17.73;12.57;;;;;;;18.40;78.35;100789.38;5091820;28;20059;-63
2021/07/09 01:11:25;;;;;;;15.70;12.98;;;;;;;18.40;77.96;100782.91;5092476;28;20059;-63
2021/07/09 01:13:53;;;;;;;17.95;12.98;;;;;;;18.38;78.02;100782.44;5092066;28;20055;-63
2021/07/09 01:16:21;;;;;;;16.05;12.90;;;;;;;18.40;77.93;100774.44;5092453;28;20052;-63
2021/07/09 01:18:50;;;;;;;17.90;13.52;;;;;;;18.36;77.99;100774.34;5089718;28;20048;-63
2021/07/09 01:21:18;;;;;;;18.13;13.23;;;;;;;18.41;77.90;100773.25;5081338;28;20500;-63
2021/07/09 01:23:46;;;;;;;17.45;12.27;;;;;;;18.41;77.97;100771.25;5087490;28;20056;-63
2021/07/09 01:26:15;;;;;;;15.80;12.40;;;;;;;18.42;77.61;100769.25;5089751;28;20059;-63
2021/07/09 01:28:42;;;;;;;18.02;13.68;;;;;;;18.43;77.55;100770.88;5091641;28;20499;-63
2021/07/09 01:31:10;;;;;;;19.35;13.60;;;;;;;18.43;77.43;100765.25;5092102;28;20056;-63
2021/07/09 01:33:38;;;;;;;16.77;12.30;;;;;;;18.40;77.75;100766.00;5091886;28;20531;-63
2021/07/09 01:36:08;;;;;;;19.90;13.75;;;;;;;18.37;77.33;100761.06;5091860;28;20056;-63
2021/07/09 01:38:36;;;;;;;24.77;14.80;;;;;;;18.36;77.36;100771.53;5092978;28;20059;-63
2021/07/09 01:41:04;;;;;;;21.23;14.52;;;;;;;18.32;77.53;100767.78;5093124;28;20056;-63
2021/07/09 01:43:35;;;;;;;17.70;13.57;;;;;;;18.30;77.42;100774.97;5091826;28;20067;-63
2021/07/09 01:46:03;;;;;;;22.60;14.50;;;;;;;18.32;77.45;100775.44;5092906;28;20061;-63
2021/07/09 01:48:30;;;;;;;25.20;15.15;;;;;;;18.36;77.53;100767.88;5091923;28;20212;-63
2021/07/09 01:50:58;;;;;;;22.70;14.25;;;;;;;18.32;77.37;100758.50;5092519;28;20056;-63
2021/07/09 01:53:28;;;;;;;18.83;14.02;;;;;;;18.25;77.31;100756.31;5092081;28;20063;-63
2021/07/09 01:55:56;;;;;;;18.75;13.88;;;;;;;18.22;77.26;100759.84;5090968;28;20501;-63
2021/07/09 01:58:23;;;;;;;22.02;14.10;;;;;;;18.22;77.34;100755.00;5092064;28;20064;-63
2021/07/09 02:00:52;;;;;;;22.73;14.32;;;;;;;18.24;77.49;100749.81;5091757;28;20067;-63
2021/07/09 02:03:24;;;;;;;23.77;14.32;;;;;;;18.24;77.24;100747.00;5091872;28;20078;-63
2021/07/09 02:05:52;;;;;;;18.92;13.93;;;;;;;18.05;77.90;100752.50;5091688;28;20064;-63
2021/07/09 02:08:19;;;;;;;20.88;14.07;;;;;;;18.17;77.59;100749.63;5091954;28;20052;-63
2021/07/09 02:10:47;;;;;;;15.43;12.80;;;;;;;18.18;77.23;100751.25;5091550;28;20404;-63
2021/07/09 02:13:14;;;;;;;17.92;13.52;;;;;;;18.10;77.31;100755.09;5091601;28;20056;-63
2021/07/09 02:15:44;;;;;;;15.68;13.10;;;;;;;18.13;77.46;100745.91;5092125;28;20394;-63
2021/07/09 02:18:14;;;;;;;22.88;13.82;;;;;;;18.19;77.46;100749.28;5091917;28;20416;-63
2021/07/09 02:20:41;;;;;;;17.38;13.88;;;;;;;18.20;76.95;100746.09;5092242;28;20075;-63
2021/07/09 02:23:12;;;;;;;20.50;14.93;;;;;;;18.09;77.46;100744.16;5091443;28;20055;-63
2021/07/09 02:25:41;;;;;;;20.70;14.52;;;;;;;18.14;77.33;100746.72;5084430;28;20056;-63
2021/07/09 02:28:08;;;;;;;19.05;14.85;;;;;;;18.14;77.43;100749.53;5092130;28;20071;-64
2021/07/09 02:30:36;;;;;;;18.35;14.63;;;;;;;18.18;77.63;100751.25;5092124;28;20075;-64
2021/07/09 02:33:04;;;;;;;21.60;14.48;;;;;;;18.21;77.59;100755.38;5092200;28;20052;-64
2021/07/09 02:35:36;;;;;;;18.85;13.68;;;;;;;18.24;77.81;100757.47;5091250;28;20067;-64
2021/07/09 02:38:04;;;;;;;23.42;13.55;;;;;;;18.25;77.62;100759.94;5091941;28;20136;-64
2021/07/09 02:40:32;;;;;;;20.45;13.73;;;;;;;18.27;77.60;100756.78;5092007;28;20059;-64
2021/07/09 02:43:01;;;;;;;21.15;14.73;;;;;;;18.28;77.59;100749.13;5095759;28;20052;-64
2021/07/09 02:45:29;;;;;;;23.45;15.60;;;;;;;18.29;77.63;100754.41;5095330;28;20052;-64
2021/07/09 02:47:57;;;;;;;21.75;15.93;;;;;;;18.33;77.00;100752.50;5095632;28;20056;-64
2021/07/09 02:50:26;;;;;;;20.38;15.38;;;;;;;18.27;77.13;100745.50;5095310;28;20055;-64
2021/07/09 02:52:55;;;;;;;21.08;16.13;;;;;;;18.28;76.94;100741.47;5095309;28;20083;-64
2021/07/09 02:55:23;;;;;;;24.80;16.30;;;;;;;18.13;77.26;100745.91;5095667;28;20369;-64
2021/07/09 03:11:27;;;;;;;24.30;15.45;;;;;;;18.03;77.40;100729.50;4172954;28;21833;-63
2021/07/09 03:13:55;;;;;;;21.42;15.35;;;;;;;18.04;77.59;100717.88;4240134;28;21793;-64
2021/07/09 03:16:22;;;;;;;20.52;15.25;;;;;;;18.09;77.32;100721.59;5090751;28;20048;-64
2021/07/09 03:18:50;;;;;;;19.77;14.80;;;;;;;18.10;77.34;100720.41;5083174;28;20063;-64
2021/07/09 03:21:17;;;;;;;23.67;15.63;;;;;;;18.08;77.23;100725.59;5074603;28;20056;-64
2021/07/09 03:23:44;;;;;;;22.42;15.63;;;;;;;18.07;77.40;100723.97;5079319;28;20511;-64
2021/07/09 03:26:11;;;;;;;25.02;16.50;;;;;;;18.06;77.31;100709.06;5094281;28;20496;-64
2021/07/09 03:28:40;;;;;;;24.85;17.17;;;;;;;18.10;77.31;100723.22;5094279;28;20059;-64
2021/07/09 03:31:08;;;;;;;25.10;17.23;;;;;;;18.09;77.43;100716.78;5094758;28;20048;-64
2021/07/09 03:33:35;;;;;;;21.55;15.63;;;;;;;18.11;77.65;100714.44;5094302;28;20056;-64
2021/07/09 03:36:04;;;;;;;24.05;16.40;;;;;;;18.15;77.46;100714.53;5094818;28;20051;-64
2021/07/09 03:56:06;;;;;;;27.52;16.08;;;;;;;18.14;77.55;100712.88;5075842;28;20041;-64
2021/07/09 03:58:35;;;;;;;28.70;18.27;;;;;;;18.16;77.42;100719.78;5073853;28;20057;-64
2021/07/09 04:01:04;;;;;;;30.15;19.05;;;;;;;18.17;77.40;100715.81;5093739;28;20044;-64
2021/07/09 04:03:32;;;;;;;28.50;19.73;;;;;;;18.18;77.30;100719.44;5093828;28;20079;-64
2021/07/09 04:05:59;;;;;;;31.42;19.42;;;;;;;18.20;77.17;100720.72;5093975;28;20056;-64
2021/07/09 04:08:26;;;;;;;30.73;18.75;;;;;;;18.23;77.44;100722.00;5093929;28;20362;-64
2021/07/09 04:21:02;;;;;;;25.98;19.30;;;;;;;18.23;76.82;100728.47;4177292;28;21868;-64
2021/07/09 04:23:29;;;;;;;31.30;21.97;;;;;;;18.19;76.87;100727.53;4203558;28;21922;-64
2021/07/09 04:25:56;;;;;;;39.78;23.63;;;;;;;18.22;77.11;100726.00;4154001;28;22489;-63
2021/07/09 04:28:24;;;;;;;33.17;21.73;;;;;;;18.27;77.03;100725.75;4575661;28;20490;-64
2021/07/09 04:30:54;;;;;;;31.00;20.95;;;;;;;18.34;77.01;100725.13;5088442;28;20378;-64
2021/07/09 04:33:22;;;;;;;29.02;19.85;;;;;;;18.39;76.91;100722.84;5093355;28;20060;-64
2021/07/09 04:35:50;;;;;;;26.13;19.58;;;;;;;18.39;76.77;100731.28;5092893;28;20056;-64
2021/07/09 04:38:18;;;;;;;27.85;19.60;;;;;;;18.35;77.02;100727.59;5093442;28;20063;-64
2021/07/09 04:40:46;;;;;;;30.63;20.35;;;;;;;18.44;77.05;100738.69;5092712;28;20052;-64
2021/07/09 04:43:14;;;;;;;28.63;20.80;;;;;;;18.52;76.87;100732.06;5090428;28;20048;-64
2021/07/09 04:45:42;;;;;;;33.58;20.63;;;;;;;18.54;76.77;100732.53;5088366;28;20052;-64
2021/07/09 04:48:10;;;;;;;29.50;20.48;;;;;;;18.60;76.43;100742.34;5090958;28;20067;-64
2021/07/09 05:07:30;;;;;;;34.03;22.63;;;;;;;18.89;75.73;100756.41;5084204;28;20044;-64
2021/07/09 05:09:57;;;;;;;29.03;22.33;;;;;;;18.89;75.76;100760.06;5087445;28;20066;-64
2021/07/09 05:12:24;;;;;;;31.90;23.02;;;;;;;18.95;75.95;100750.13;5092395;28;20408;-58
2021/07/09 05:14:52;;;;;;;30.95;22.40;;;;;;;18.91;76.36;100754.84;5092389;28;20063;-48
2021/07/09 05:17:19;;;;;;;32.63;21.58;;;;;;;18.67;77.63;100750.19;5092556;28;20052;-48
2021/07/09 05:19:46;;;;;;;33.17;23.98;;;;;;;18.50;78.64;100759.81;5091839;28;20427;-49
2021/07/09 05:22:13;;;;;;;31.17;22.23;;;;;;;18.59;77.92;100760.47;5091868;28;20048;-51
2021/07/09 05:24:42;;;;;;;29.40;22.00;;;;;;;18.81;77.21;100752.59;5091455;28;20055;-49
2021/07/09 05:27:09;;;;;;;28.90;21.58;;;;;;;19.06;77.00;100759.66;5072306;28;20079;-48
2021/07/09 05:29:37;;;;;;;30.15;21.00;;;;;;;19.19;76.56;100768.03;5072184;28;20048;-64
2021/07/09 05:32:05;;;;;;;25.95;21.23;;;;;;;19.39;75.60;100766.13;5091378;28;20052;-64
2021/07/09 05:34:32;;;;;;;27.77;20.95;;;;;;;19.55;74.68;100768.88;5092844;28;20396;-64
2021/07/09 05:37:02;;;;;;;29.25;21.83;;;;;;;19.55;73.81;100775.38;5092011;28;20063;-64
2021/07/09 05:39:29;;;;;;;26.67;20.48;;;;;;;19.57;73.79;100769.34;5092010;28;20048;-64
2021/07/09 05:42:00;;;;;;;26.55;19.80;;;;;;;19.68;74.16;100773.25;5092322;28;20055;-64
2021/07/09 05:44:28;;;;;;;27.67;20.30;;;;;;;19.78;73.60;100778.34;5091298;28;20060;-64
2021/07/09 05:46:57;;;;;;;23.80;20.40;;;;;;;19.67;73.48;100788.56;5092530;28;20060;-64
2021/07/09 05:49:24;;;;;;;27.83;21.38;;;;;;;19.69;73.24;100794.66;5092319;28;20059;-64
2021/07/09 05:51:51;;;;;;;26.33;20.75;;;;;;;19.82;73.11;100790.56;5089563;28;20048;-64
2021/07/09 05:54:19;;;;;;;25.83;19.55;;;;;;;19.94;72.94;100800.91;5092411;28;20075;-64
2021/07/09 05:56:46;;;;;;;23.98;18.88;;;;;;;20.00;72.95;100796.59;5092360;28;20404;-64
2021/07/09 05:59:15;;;;;;;24.02;19.48;;;;;;;20.09;72.50;100802.03;5090761;28;20059;-64
2021/07/09 06:01:42;;;;;;;24.52;20.05;;;;;;;20.16;72.15;100798.53;5092307;28;20052;-64
2021/07/09 06:04:11;;;;;;;23.17;19.42;;;;;;;20.23;72.01;100798.69;5092270;28;20055;-64
2021/07/09 06:06:38;;;;;;;22.38;19.70;;;;;;;20.25;72.30;100791.47;5092594;28;20056;-64
2021/07/09 06:09:05;;;;;;;24.48;21.08;;;;;;;20.31;72.01;100794.00;5092108;28;20052;-64
2021/07/09 06:11:33;;;;;;;25.70;20.98;;;;;;;20.29;71.80;100794.38;5092149;28;20052;-64
2021/07/09 06:14:00;;;;;;;25.67;22.40;;;;;;;20.37;71.75;100798.97;5091583;28;20052;-64
2021/07/09 06:16:29;;;;;;;28.25;21.83;;;;;;;20.41;71.81;100799.03;5085556;28;20052;-64
2021/07/09 06:18:58;;;;;;;26.80;21.88;;;;;;;20.42;71.71;100797.88;5079568;28;20058;-64
2021/07/09 06:21:25;;;;;;;28.58;22.45;;;;;;;20.50;71.44;100798.81;5080604;28;20052;-64
2021/07/09 06:23:53;;;;;;;26.50;22.27;;;;;;;20.58;71.34;100804.28;5091399;28;20400;-64
2021/07/09 06:26:21;;;;;;;29.90;22.88;;;;;;;20.66;71.56;100810.88;5088959;28;20097;-64
2021/07/09 06:28:48;;;;;;;28.25;23.88;;;;;;;20.69;71.57;100810.13;5078711;28;20390;-64
2021/07/09 06:31:18;;;;;;;30.85;24.25;;;;;;;20.76;71.21;100815.13;5082886;28;20055;-64
2021/07/09 06:33:47;;;;;;;26.33;23.35;;;;;;;20.79;70.83;100814.34;5087528;28;20056;-64
2021/07/09 06:36:15;;;;;;;26.58;21.90;;;;;;;20.81;71.04;100811.97;5085175;28;20051;-64
2021/07/09 06:38:42;;;;;;;30.17;24.02;;;;;;;20.79;70.92;100815.19;5088211;28;20056;-64
2021/07/09 06:41:10;;;;;;;29.33;24.65;;;;;;;20.83;70.92;100829.38;5089681;28;20056;-64
2021/07/09 06:43:37;;;;;;;28.80;23.95;;;;;;;20.86;70.95;100820.97;5082750;28;20543;-64
2021/07/09 06:46:07;;;;;;;29.33;24.05;;;;;;;20.89;70.67;100825.06;5089701;28;20063;-64
2021/07/09 06:48:34;;;;;;;30.60;23.83;;;;;;;20.93;70.55;100819.47;5082394;28;20481;-64
2021/07/09 06:51:03;;;;;;;28.75;22.92;;;;;;;20.94;70.10;100821.13;5082712;28;20052;-64
2021/07/09 06:53:30;;;;;;;27.58;23.52;;;;;;;20.99;70.20;100824.44;5073951;28;20387;-64
2021/07/09 06:55:58;;;;;;;28.70;21.58;;;;;;;21.01;70.27;100833.38;5074645;28;20052;-64
2021/07/09 06:58:25;;;;;;;26.08;21.98;;;;;;;21.06;69.80;100832.25;5079289;28;20613;-64
2021/07/09 07:00:53;;;;;;;26.65;22.95;;;;;;;21.10;69.83;100830.28;5077962;28;20052;-64
2021/07/09 07:03:20;;;;;;;28.08;22.75;;;;;;;21.15;69.95;100843.34;5083043;28;20067;-64
2021/07/09 07:05:47;;;;;;;25.45;22.02;;;;;;;21.17;70.23;100835.28;5073565;28;20065;-64
2021/07/09 07:08:18;;;;;;;26.52;21.83;;;;;;;21.24;69.31;100829.72;5074949;28;20067;-64
2021/07/09 07:10:47;;;;;;;25.55;21.75;;;;;;;21.27;69.17;100838.31;5088306;28;20056;-64
2021/07/09 07:13:15;;;;;;;22.38;20.05;;;;;;;21.35;69.03;100836.38;5081683;28;20075;-64
2021/07/09 07:15:42;;;;;;;24.27;20.45;;;;;;;21.47;68.30;100839.06;5073556;28;20060;-64
2021/07/09 07:18:10;;;;;;;25.05;21.35;;;;;;;21.55;68.37;100833.50;5074730;28;20067;-64
2021/07/09 07:20:39;;;;;;;26.52;22.08;;;;;;;21.58;68.18;100830.72;5085519;28;20067;-64
2021/07/09 07:23:07;;;;;;;24.30;20.88;;;;;;;21.61;68.02;100840.50;5092589;28;20400;-64
2021/07/09 07:25:36;;;;;;;22.67;20.13;;;;;;;21.65;67.61;100841.38;5073797;28;20401;-64
2021/07/09 07:28:03;;;;;;;21.40;19.15;;;;;;;21.63;68.05;100835.25;5074240;28;20146;-64
2021/07/09 07:30:31;;;;;;;22.92;19.38;;;;;;;21.61;67.30;100841.31;5080386;28;20060;-64
2021/07/09 07:32:59;;;;;;;22.23;19.35;;;;;;;21.62;67.19;100830.78;5081800;28;20055;-64
2021/07/09 07:35:26;;;;;;;21.02;18.70;;;;;;;21.68;66.61;100838.56;5091405;28;20085;-64
2021/07/09 07:37:54;;;;;;;22.67;19.08;;;;;;;21.71;66.95;100836.16;5091178;28;20063;-64
2021/07/09 07:40:21;;;;;;;23.33;19.20;;;;;;;21.75;66.80;100826.50;5073017;28;20371;-65
2021/07/09 07:42:53;;;;;;;24.88;19.55;;;;;;;21.83;66.45;100833.13;5073355;28;20053;-64
2021/07/09 07:45:20;;;;;;;22.13;19.65;;;;;;;21.92;66.12;100830.00;5090555;28;20170;-64
2021/07/09 07:47:47;;;;;;;28.02;19.65;;;;;;;21.98;66.03;100822.78;5077074;28;20061;-64
2021/07/09 07:50:17;;;;;;;21.63;18.05;;;;;;;22.13;65.36;100824.59;5080384;28;20057;-64
2021/07/09 07:52:44;;;;;;;25.50;19.85;;;;;;;22.31;64.71;100826.91;5073232;28;20078;-64
2021/07/09 07:55:15;;;;;;;22.95;19.38;;;;;;;22.47;64.40;100822.66;5073200;28;20063;-64
2021/07/09 07:57:42;;;;;;;22.75;18.13;;;;;;;22.73;63.64;100818.06;5078248;28;20052;-64
2021/07/09 08:00:13;;;;;;;19.38;17.25;;;;;;;22.98;62.64;100811.84;5077857;28;20047;-64
2021/07/09 08:02:41;;;;;;;23.73;18.23;;;;;;;23.26;61.84;100816.97;5090344;28;20063;-64
2021/07/09 08:05:10;;;;;;;20.15;17.10;;;;;;;23.60;60.35;100809.13;5081680;28;20412;-64
2021/07/09 08:07:37;;;;;;;18.88;14.75;;;;;;;24.06;59.42;100807.78;5077196;28;20413;-64
2021/07/09 08:10:08;;;;;;;17.75;15.48;;;;;;;24.28;57.93;100808.72;5078462;28;20060;-64
2021/07/09 08:12:36;;;;;;;19.20;15.48;;;;;;;24.48;58.17;100806.31;5071501;28;20485;-65
2021/07/09 08:15:05;;;;;;;16.30;13.70;;;;;;;24.87;55.37;100799.94;5073454;28;20489;-64
2021/07/09 08:17:34;;;;;;;;;;;;;;;25.25;51.51;100804.06;5085195;28;20068;-64
2021/07/09 08:20:04;;;;;;;13.40;12.00;;;;;;;25.56;52.11;100806.50;5091612;28;19920;-64
2021/07/09 08:22:31;;;;;;;14.82;12.00;;;;;;;25.66;51.98;100797.09;5078396;28;20474;-64
2021/07/09 08:24:59;;;;;;;14.38;12.48;;;;;;;25.91;50.30;100799.91;5080556;28;20052;-64
2021/07/09 08:27:26;;;;;;;14.17;11.47;;;;;;;26.19;49.43;100795.34;5043305;28;1318429;-64
2021/07/09 08:29:54;;;;;;;13.23;11.60;;;;;;;26.43;49.27;100805.03;5091839;28;20500;-64
2021/07/09 08:32:21;;;;;;;16.08;12.23;;;;;;;26.53;49.69;100789.88;5078473;28;20485;-63
2021/07/09 08:34:53;;;;;;;14.15;11.05;;;;;;;26.64;49.11;100804.13;5073511;28;20061;-63
2021/07/09 08:37:21;;;;;;;14.57;11.70;;;;;;;26.93;48.61;100791.28;5082817;28;20405;-63
2021/07/09 08:39:49;;;;;;;12.70;11.40;;;;;;;27.25;47.60;100786.56;5088511;28;20080;-63
2021/07/09 08:42:16;;;;;;;12.10;10.85;;;;;;;27.49;47.00;100782.66;5083922;28;20484;-63
2021/07/09 08:44:44;;;;;;;11.65;10.45;;;;;;;27.65;44.24;100784.13;5080719;28;20052;-63
2021/07/09 08:47:12;;;;;;;11.05;9.95;;;;;;;28.40;44.00;100782.47;5083799;28;20063;-63
2021/07/09 08:49:40;;;;;;;12.05;10.05;;;;;;;29.31;41.46;100783.56;5090933;28;20064;-63
2021/07/09 08:52:09;;;;;;;12.30;11.10;;;;;;;29.61;42.00;100791.22;5090432;28;20056;-63
2021/07/09 08:54:37;;;;;;;11.43;10.30;;;;;;;29.82;40.73;100790.03;5081020;28;20408;-63
2021/07/09 08:57:05;;;;;;;11.98;10.27;;;;;;;30.01;39.50;100781.84;5073731;28;20594;-63
2021/07/09 08:59:33;;;;;;;12.38;11.02;;;;;;;29.74;40.91;100785.69;5087185;28;20068;-63
2021/07/09 09:02:03;;;;;;;13.27;11.88;;;;;;;29.65;40.86;100779.66;5072305;28;20064;-63
2021/07/09 09:04:34;;;;;;;13.88;12.05;;;;;;;29.28;41.75;100778.69;5070762;28;20060;-63
2021/07/09 09:07:04;;;;;;;14.52;11.05;;;;;;;29.60;40.26;100785.91;5083163;28;20066;-63
2021/07/09 09:09:35;;;;;;;13.57;11.98;;;;;;;29.35;41.21;100782.22;5086365;28;20049;-63
2021/07/09 09:12:07;;;;;;;13.45;11.10;;;;;;;29.42;41.08;100781.31;5085866;28;20051;-63
2021/07/09 09:14:40;;;;;;;15.73;12.80;;;;;;;29.12;41.69;100787.97;5079172;28;20052;-63
2021/07/09 09:17:32;;;;;;;14.27;12.73;;;;;;;29.33;40.25;100789.66;5071550;28;20071;-63
2021/07/09 09:20:09;;;;;;;14.48;12.27;;;;;;;29.82;40.43;100784.28;5055589;28;20405;-63
2021/07/09 09:22:39;;;;;;;13.80;12.43;;;;;;;30.60;39.05;100781.03;5075502;28;20068;-63
2021/07/09 09:25:09;;;;;;;15.30;12.38;;;;;;;30.83;38.38;100779.28;5078638;28;20057;-63
2021/07/09 09:27:37;;;;;;;13.88;12.43;;;;;;;30.55;37.95;100790.16;5081767;28;20063;-64
2021/07/09 09:30:11;;;;;;;14.05;12.55;;;;;;;30.23;37.82;100783.03;5081768;28;20408;-64
2021/07/09 09:32:46;;;;;;;13.75;12.45;;;;;;;31.76;35.87;100786.34;5076503;28;20067;-64
2021/07/09 09:35:22;;;;;;;13.73;12.32;;;;;;;33.42;31.75;100782.09;5073019;28;20053;-64
2021/07/09 09:37:55;;;;;;;11.80;10.70;;;;;;;33.72;31.42;100774.03;5076145;28;20052;-63
2021/07/09 09:40:25;;;;;;;13.82;12.50;;;;;;;33.99;32.47;100784.22;5079597;28;20393;-63
2021/07/09 09:42:52;;;;;;;12.88;11.70;;;;;;;34.94;30.90;100778.88;5087201;28;20048;-63
2021/07/09 09:45:22;;;;;;;12.52;11.40;;;;;;;34.93;31.07;100782.22;5073404;28;20061;-63
2021/07/09 09:47:50;;;;;;;12.48;10.88;;;;;;;34.08;32.24;100778.50;5081666;28;20059;-63
2021/07/09 09:50:20;;;;;;;12.10;11.00;;;;;;;34.96;30.72;100787.88;5090049;28;20508;-63
2021/07/09 09:52:49;;;;;;;11.90;10.80;;;;;;;34.85;30.80;100792.50;5083130;28;20067;-63
2021/07/09 09:55:22;;;;;;;11.90;9.73;;;;;;;35.38;28.51;100783.66;5084431;28;20057;-63
2021/07/09 09:58:09;;;;;;;9.77;8.98;;;;;;;36.04;27.76;100782.44;5085756;28;20060;-63
2021/07/09 10:00:37;;;;;;;9.18;8.35;;;;;;;35.38;29.03;100783.66;5081257;28;20056;-63
2021/07/09 10:03:05;;;;;;;9.55;8.75;;;;;;;36.82;26.64;100782.91;5083939;28;20059;-64
2021/07/09 10:05:35;;;;;;;8.32;7.32;;;;;;;37.84;26.06;100769.38;5074467;28;20052;-64
2021/07/09 10:08:02;;;;;;;8.10;7.03;;;;;;;38.61;24.45;100772.66;5083068;28;20509;-64
2021/07/09 10:10:31;;;;;;;7.00;6.33;;;;;;;38.93;24.37;100770.78;5086152;28;20062;-64
2021/07/09 10:13:00;;;;;;;7.60;6.90;;;;;;;40.04;22.31;100772.00;5084683;28;20548;-64
2021/07/09 10:15:30;;;;;;;7.88;6.15;;;;;;;39.34;22.48;100770.88;5081898;28;20164;-64
2021/07/09 10:17:59;;;;;;;6.90;6.20;;;;;;;38.84;23.74;100768.00;5083038;28;20056;-64
2021/07/09 10:20:27;;;;;;;9.82;7.32;;;;;;;40.41;21.84;100771.34;5084451;28;20052;-64
2021/07/09 10:22:58;;;;;;;8.52;6.63;;;;;;;40.93;21.60;100769.13;5083679;28;20059;-64
2021/07/09 10:25:26;;;;;;;7.20;6.50;;;;;;;41.66;20.64;100759.16;5081535;28;20060;-64
2021/07/09 10:27:56;;;;;;;6.38;5.47;;;;;;;40.11;21.50;100754.84;5090249;28;20052;-64
2021/07/09 10:30:35;;;;;;;7.88;6.00;;;;;;;39.54;21.80;100765.06;5082257;28;20067;-64
2021/07/09 10:33:23;;;;;;;5.90;5.03;;;;;;;39.31;22.47;100763.13;5075009;28;20060;-64
2021/07/09 10:35:50;;;;;;;8.15;5.35;;;;;;;40.46;20.83;100761.81;5079582;28;20059;-64
2021/07/09 10:38:22;;;;;;;4.80;4.13;;;;;;;41.62;20.02;100761.53;5088795;28;20059;-64
2021/07/09 10:40:51;;;;;;;6.05;4.55;;;;;;;42.14;18.16;100750.25;5087827;28;20477;-64
2021/07/09 10:43:19;;;;;;;6.40;4.15;;;;;;;42.23;18.25;100755.03;5089834;28;20063;-64
2021/07/09 10:45:48;;;;;;;5.13;4.43;;;;;;;41.80;18.29;100754.44;5079069;28;20064;-64
2021/07/09 10:48:17;;;;;;;4.85;4.40;;;;;;;41.33;19.00;100751.84;5080559;28;20400;-64
2021/07/09 10:50:46;;;;;;;4.65;4.20;;;;;;;41.49;18.60;100756.94;5093954;28;20056;-64
2021/07/09 10:53:25;;;;;;;5.38;4.13;;;;;;;41.50;17.42;100752.69;5083848;28;20067;-64
2021/07/09 10:55:57;;;;;;;6.28;4.20;;;;;;;40.86;19.53;100754.19;5089170;28;20044;-65
2021/07/09 10:58:37;;;;;;;5.70;5.15;;;;;;;41.39;18.37;100746.78;5077376;28;20060;-64
2021/07/09 11:01:31;;;;;;;5.05;4.57;;;;;;;43.28;16.66;100751.81;5084975;28;20071;-64
2021/07/09 11:04:11;;;;;;;5.47;4.25;;;;;;;42.09;17.13;100745.19;5080423;28;20515;-64
2021/07/09 11:06:41;;;;;;;6.50;4.15;;;;;;;40.50;19.19;100760.25;5079370;28;20058;-64
2021/07/09 11:09:10;;;;;;;5.80;4.60;;;;;;;39.17;20.35;100758.97;5084178;28;20055;-64
2021/07/09 11:11:42;;;;;;;6.95;4.93;;;;;;;38.46;22.06;100749.34;5090344;28;20059;-64
2021/07/09 11:14:11;;;;;;;5.90;5.05;;;;;;;37.61;22.65;100750.69;5091992;28;20397;-64
2021/07/09 11:16:42;;;;;;;4.88;4.40;;;;;;;36.86;23.18;100752.41;5085686;28;20051;-64
2021/07/09 11:19:12;;;;;;;5.30;4.80;;;;;;;36.69;23.89;100746.19;5092369;28;20055;-63
2021/07/09 11:21:51;;;;;;;9.57;8.57;;;;;;;36.44;24.62;100750.28;5081037;28;20135;-63
2021/07/09 11:24:20;;;;;;;6.85;5.10;;;;;;;35.64;24.75;100754.41;5089658;28;20056;-63
2021/07/09 11:26:49;;;;;;;7.03;5.07;;;;;;;34.84;26.18;100751.16;5086605;28;20052;-63
2021/07/09 11:29:28;;;;;;;6.88;5.25;;;;;;;34.24;26.43;100751.50;5090426;28;20059;-63
2021/07/09 11:31:58;;;;;;;5.38;4.90;;;;;;;33.74;27.84;100739.72;5086742;28;20425;-63
2021/07/09 11:34:30;;;;;;;5.80;5.30;;;;;;;34.70;27.44;100743.88;5091989;28;20060;-63
2021/07/09 11:36:59;;;;;;;7.32;5.50;;;;;;;36.46;25.48;100729.50;5084853;28;20064;-63
2021/07/09 11:39:29;;;;;;;9.52;5.13;;;;;;;35.65;25.07;100744.44;5078936;28;20052;-64
2021/07/09 11:42:00;;;;;;;5.70;5.18;;;;;;;35.23;25.67;100731.34;5074178;28;20061;-64
2021/07/09 11:44:30;;;;;;;9.43;6.65;;;;;;;34.56;26.33;100735.75;5072223;28;20060;-64
2021/07/09 11:47:01;;;;;;;7.35;5.57;;;;;;;34.04;27.23;100729.50;5082890;28;20064;-64
2021/07/09 11:49:29;;;;;;;8.10;5.63;;;;;;;34.12;26.75;100730.03;5081736;28;20052;-64
2021/07/09 11:51:59;;;;;;;7.03;5.80;;;;;;;33.54;28.03;100723.47;5087036;28;20052;-63
2021/07/09 11:54:32;;;;;;;7.38;5.22;;;;;;;33.38;28.11;100723.66;5079881;28;20067;-63
2021/07/09 11:57:08;;;;;;;6.57;5.22;;;;;;;32.94;28.78;100727.19;5079491;28;20424;-63
2021/07/09 11:59:36;;;;;;;5.97;5.30;;;;;;;32.48;30.18;100731.56;5084732;28;20065;-63
2021/07/09 12:02:11;;;;;;;8.98;5.72;;;;;;;31.90;30.95;100727.53;5083260;28;20067;-64
2021/07/09 12:04:41;;;;;;;7.90;5.47;;;;;;;31.38;32.56;100737.19;5072520;28;20412;-63
2021/07/09 12:07:23;;;;;;;7.18;6.10;;;;;;;30.97;32.07;100732.91;5080538;28;20069;-63
2021/07/09 12:09:53;;;;;;;8.65;6.82;;;;;;;30.58;33.25;100737.53;5086699;28;20412;-65
2021/07/09 12:12:21;;;;;;;6.90;6.22;;;;;;;30.15;34.44;100738.47;5080595;28;20417;-64
2021/07/09 12:15:00;;;;;;;7.72;6.20;;;;;;;29.80;35.03;100737.16;5071012;28;20061;-63
2021/07/09 12:17:31;;;;;;;7.60;6.80;;;;;;;29.42;35.85;100735.41;5090808;28;20060;-63
2021/07/09 12:20:08;;;;;;;7.85;6.53;;;;;;;29.29;36.43;100728.66;5084218;28;20060;-63
2021/07/09 12:22:37;;;;;;;6.85;6.07;;;;;;;29.18;36.07;100728.06;5090021;28;20056;-63